Time;durP1;ratioP1;P1;durP2;ratioP2;P2;SDS_P1;SDS_P2;PMS_P1;PMS_P2;Temp;Humidity;BMP_temperature;BMP_pressure;BME280_temperature;BME280_humidity;BME280_pressure;Samples;Min_cycle;Max_cycle;Signal;HPM_P1;HPM_P2
2023/01/16 00:00:14;;;;;;;4.97;2.03;;;3.80;99.90;;;;;;10278244;29;20207;-81
2023/01/16 00:05:54;;;;;;;2.57;1.47;;;3.80;99.90;;;;;;10256434;29;20266;-87
2023/01/16 00:11:35;;;;;;;7.27;1.40;;;3.90;99.90;;;;;;10278015;29;20481;-81
2023/01/16 00:16:56;;;;;;;2.10;1.07;;;3.80;99.90;;;;;;10277834;29;20210;-81
2023/01/16 00:22:17;;;;;;;3.60;1.43;;;3.70;99.90;;;;;;10261354;29;20265;-83
2023/01/16 00:27:38;;;;;;;2.50;1.13;;;3.70;99.90;;;;;;10379326;28;20471;-84
2023/01/16 00:33:00;;;;;;;4.40;1.90;;;3.70;99.90;;;;;;10356222;28;20246;-81
2023/01/16 00:38:21;;;;;;;6.37;2.07;;;3.60;1.00;;;;;;10386814;28;20514;-83
2023/01/16 00:43:42;;;;;;;2.07;1.40;;;3.60;1.00;;;;;;10356485;28;20327;-81
2023/01/16 00:49:04;;;;;;;3.03;1.60;;;3.60;1.00;;;;;;10356777;28;20383;-84
2023/01/16 00:54:25;;;;;;;5.43;1.90;;;3.70;1.00;;;;;;10372148;28;20205;-81
2023/01/16 01:00:05;;;;;;;3.63;1.57;;;3.80;99.90;;;;;;10377623;28;20268;-89
2023/01/16 01:05:46;;;;;;;7.17;1.70;;;3.70;1.00;;;;;;10388521;28;20229;-88
2023/01/16 01:11:14;;;;;;;2.30;1.30;;;3.70;1.00;;;;;;10369149;28;20488;-83
2023/01/16 01:16:35;;;;;;;5.40;1.63;;;3.70;1.00;;;;;;10369020;28;20202;-87
2023/01/16 01:21:56;;;;;;;4.53;2.20;;;3.70;1.00;;;;;;10369542;28;20499;-88
2023/01/16 01:27:34;;;;;;;3.70;1.27;;;3.80;99.90;;;;;;11068047;23;20599;-76
2023/01/16 01:32:55;;;;;;;5.53;2.67;;;3.80;99.90;;;;;;10299399;28;20203;-79
2023/01/16 01:38:16;;;;;;;3.53;1.40;;;3.70;1.00;;;;;;10303200;28;20198;-78
2023/01/16 01:43:57;;;;;;;2.03;1.30;;;3.70;1.00;;;;;;10316546;28;20238;-78
2023/01/16 01:49:29;;;;;;;7.37;1.33;;;3.60;1.00;;;;;;10317134;28;20196;-79
2023/01/16 01:55:01;;;;;;;3.70;1.33;;;3.60;1.00;;;;;;10317142;28;20194;-79
2023/01/16 02:00:25;;;;;;;7.03;1.63;;;3.40;1.00;;;;;;10316526;28;20384;-78
2023/01/16 02:05:49;;;;;;;4.20;1.50;;;3.30;1.00;;;;;;10315667;28;20474;-79
2023/01/16 02:11:27;;;;;;;2.27;1.13;;;3.30;1.00;;;;;;10316452;28;20447;-77
2023/01/16 02:23:08;;;;;;;3.60;1.57;;;3.20;1.00;;;;;;10316206;28;20457;-80
2023/01/16 02:29:00;;;;;;;4.00;1.60;;;3.20;1.00;;;;;;10314430;28;20241;-80
2023/01/16 02:34:27;;;;;;;4.40;1.70;;;3.20;1.00;;;;;;10315014;28;20245;-80
2023/01/16 02:40:37;;;;;;;3.33;1.57;;;3.20;1.00;;;;;;10301117;28;20234;-80
2023/01/16 02:45:58;;;;;;;3.03;1.53;;;3.20;1.00;;;;;;10153717;29;20561;-80
2023/01/16 02:52:05;;;;;;;2.37;1.47;;;3.30;1.00;;;;;;10140795;29;20201;-78
2023/01/16 02:57:31;;;;;;;6.17;2.00;;;3.20;1.00;;;;;;10000584;29;20223;-78
2023/01/16 03:02:52;;;;;;;3.13;1.47;;;3.20;1.00;;;;;;9987121;29;20441;-78
2023/01/16 03:08:45;;;;;;;2.63;1.10;;;3.30;1.00;;;;;;10000525;29;20263;-80
2023/01/16 03:14:43;;;;;;;4.37;1.60;;;3.40;1.00;;;;;;9909882;30;20224;-78
2023/01/16 03:20:37;;;;;;;3.50;1.53;;;3.40;1.00;;;;;;9941920;29;20520;-80
2023/01/16 03:26:04;;;;;;;5.73;2.00;;;3.30;1.00;;;;;;10022457;29;20291;-80
2023/01/16 03:31:48;;;;;;;3.47;1.00;;;3.30;1.00;;;;;;10038192;29;20446;-80
2023/01/16 03:37:24;;;;;;;3.33;1.23;;;3.20;1.00;;;;;;10075704;29;20210;-80
2023/01/16 03:42:59;;;;;;;3.33;1.20;;;3.10;1.00;;;;;;10075416;29;20237;-79
2023/01/16 03:48:31;;;;;;;3.47;1.50;;;3.00;1.00;;;;;;10139044;29;20211;-80
2023/01/16 03:54:30;;;;;;;6.37;4.23;;;3.00;1.00;;;;;;10178241;29;20288;-79
2023/01/16 03:59:52;;;;;;;3.33;1.70;;;3.00;1.00;;;;;;10203568;28;20213;-81
2023/01/16 04:05:29;;;;;;;5.50;1.73;;;2.80;1.00;;;;;;10314479;28;20253;-79
2023/01/16 04:10:52;;;;;;;4.63;1.77;;;2.70;1.00;;;;;;10319746;28;20200;-77
2023/01/16 04:16:17;;;;;;;5.20;1.93;;;2.60;1.00;;;;;;10319696;28;20213;-78
2023/01/16 04:21:43;;;;;;;3.30;1.90;;;2.60;1.00;;;;;;10320543;28;20269;-78
2023/01/16 04:27:04;;;;;;;6.33;2.17;;;2.70;1.00;;;;;;10319658;28;20528;-78
2023/01/16 04:32:25;;;;;;;2.53;1.70;;;2.80;1.00;;;;;;10320074;28;20249;-78
2023/01/16 04:37:46;;;;;;;2.60;1.03;;;2.80;1.00;;;;;;10319399;28;20206;-78
2023/01/16 04:43:08;;;;;;;3.27;2.47;;;2.80;1.00;;;;;;10319937;28;20214;-78
2023/01/16 04:48:29;;;;;;;2.80;1.20;;;2.70;1.00;;;;;;10302321;28;20275;-78
2023/01/16 04:53:50;;;;;;;5.97;1.40;;;2.70;1.00;;;;;;10319313;28;20200;-79
2023/01/16 04:59:15;;;;;;;3.97;1.70;;;2.70;1.00;;;;;;10318546;28;20201;-78
2023/01/16 05:04:36;;;;;;;3.60;1.50;;;2.70;1.00;;;;;;10319143;28;20226;-78
2023/01/16 05:09:57;;;;;;;4.63;1.50;;;2.70;1.00;;;;;;10303872;28;20227;-78
2023/01/16 05:15:18;;;;;;;2.93;1.50;;;2.90;1.00;;;;;;10301129;28;20526;-74
2023/01/16 05:20:40;;;;;;;4.80;2.30;;;2.80;1.00;;;;;;10317268;28;20567;-80
2023/01/16 05:26:02;;;;;;;5.00;2.57;;;2.90;1.00;;;;;;10318091;28;20440;-80
2023/01/16 05:31:23;;;;;;;5.50;2.80;;;2.80;1.00;;;;;;10300416;28;20242;-80
2023/01/16 05:36:44;;;;;;;4.47;2.13;;;3.00;1.00;;;;;;10303082;28;20428;-78
2023/01/16 05:42:20;;;;;;;4.70;2.10;;;3.10;1.00;;;;;;10316805;28;20194;-77
2023/01/16 05:47:43;;;;;;;5.07;2.60;;;3.00;1.00;;;;;;10317242;28;20463;-77
2023/01/16 05:53:04;;;;;;;5.57;3.90;;;3.00;1.00;;;;;;10317117;28;20374;-79
2023/01/16 05:58:25;;;;;;;8.83;4.27;;;3.00;1.00;;;;;;10316929;28;20194;-78
2023/01/16 06:03:46;;;;;;;8.13;4.40;;;3.00;1.00;;;;;;10315713;28;20233;-78
2023/01/16 06:09:07;;;;;;;5.70;2.67;;;3.00;1.00;;;;;;10316816;28;20265;-77
2023/01/16 06:14:28;;;;;;;9.57;4.00;;;3.00;1.00;;;;;;10316458;28;20413;-79
2023/01/16 06:19:49;;;;;;;9.80;4.23;;;2.90;1.00;;;;;;10315169;28;20200;-78
2023/01/16 06:25:10;;;;;;;31.43;18.37;;;2.90;1.00;;;;;;10316110;28;20277;-76
2023/01/16 06:30:31;;;;;;;25.53;15.00;;;2.70;1.00;;;;;;10297506;28;20245;-74
2023/01/16 06:35:52;;;;;;;10.43;4.60;;;2.60;1.00;;;;;;10315384;28;20358;-74
2023/01/16 06:41:13;;;;;;;8.93;3.97;;;2.60;1.00;;;;;;10315477;28;20195;-75
2023/01/16 06:46:35;;;;;;;41.27;22.70;;;2.50;1.00;;;;;;10314243;28;20247;-79
2023/01/16 06:51:56;;;;;;;37.77;18.97;;;2.40;1.00;;;;;;10314246;28;20190;-79
2023/01/16 06:57:17;;;;;;;38.43;16.17;;;2.40;1.00;;;;;;10297107;28;20282;-76
2023/01/16 07:02:39;;;;;;;37.57;15.90;;;2.30;13.50;;;;;;10314644;28;20421;-76
2023/01/16 07:08:01;;;;;;;45.03;20.33;;;2.30;31.90;;;;;;10315418;28;20218;-78
2023/01/16 07:13:27;;;;;;;46.73;22.23;;;2.30;25.70;;;;;;10300494;28;20245;-78
2023/01/16 07:24:31;;;;;;;25.33;10.27;;;2.20;25.20;;;;;;10313570;28;20241;-77
2023/01/16 07:29:53;;;;;;;14.37;6.37;;;2.20;28.60;;;;;;10310608;28;20229;-78
2023/01/16 07:35:14;;;;;;;18.50;9.43;;;2.20;28.70;;;;;;10313640;28;20201;-78
2023/01/16 07:40:35;;;;;;;18.90;9.83;;;2.20;36.80;;;;;;10317772;28;20257;-74
2023/01/16 07:45:56;;;;;;;26.93;10.60;;;2.10;40.50;;;;;;10321764;28;20222;-75
2023/01/16 07:51:18;;;;;;;11.90;5.37;;;2.10;42.60;;;;;;10307557;28;20224;-77
2023/01/16 07:56:39;;;;;;;14.03;7.00;;;2.20;18.70;;;;;;10321600;28;20198;-79
2023/01/16 08:02:01;;;;;;;28.20;14.00;;;2.20;17.00;;;;;;10304075;28;20206;-78
2023/01/16 08:07:22;;;;;;;38.73;16.90;;;2.30;16.20;;;;;;10304029;28;20233;-78
2023/01/16 08:12:43;;;;;;;26.50;12.03;;;2.20;19.30;;;;;;10321047;28;20507;-79
2023/01/16 08:18:04;;;;;;;11.80;7.03;;;2.20;9.50;;;;;;10316789;28;20249;-77
2023/01/16 08:23:26;;;;;;;24.33;13.20;;;2.30;4.20;;;;;;10319679;28;20263;-78
2023/01/16 08:28:48;;;;;;;25.50;12.13;;;2.30;1.00;;;;;;10278493;28;20758;-80
2023/01/16 08:34:09;;;;;;;14.13;6.93;;;2.40;10.30;;;;;;10297281;28;20207;-78
2023/01/16 08:39:30;;;;;;;12.40;5.00;;;2.90;1.00;;;;;;10336832;28;20207;-76
2023/01/16 08:56:10;;;;;;;10.63;5.97;;;6.50;1.00;;;;;;10278020;28;20235;-81
2023/01/16 09:01:31;;;;;;;12.90;6.57;;;7.20;99.90;;;;;;10270573;28;20393;-75
2023/01/16 09:06:53;;;;;;;8.77;4.13;;;7.00;1.00;;;;;;10288143;28;20587;-77
2023/01/16 09:17:54;;;;;;;12.83;5.43;;;5.50;99.90;;;;;;10314233;28;20206;-79
2023/01/16 09:23:15;;;;;;;16.43;6.97;;;5.00;1.00;;;;;;10310841;28;20270;-77
2023/01/16 09:28:37;;;;;;;21.93;9.37;;;4.60;1.00;;;;;;10310868;28;20241;-78
2023/01/16 09:33:58;;;;;;;34.83;14.57;;;4.40;1.00;;;;;;10297388;28;20507;-79
2023/01/16 09:39:19;;;;;;;9.00;4.53;;;4.40;1.00;;;;;;10273094;28;20223;-78
2023/01/16 09:44:43;;;;;;;33.77;11.10;;;4.40;1.00;;;;;;10260763;28;20248;-79
2023/01/16 09:50:14;;;;;;;12.13;5.60;;;4.40;99.90;;;;;;10272951;28;20210;-79
2023/01/16 10:01:33;;;;;;;8.27;4.13;;;4.40;1.00;;;;;;10311840;28;20205;-79
2023/01/16 10:07:18;;;;;;;17.70;7.03;;;4.30;99.90;;;;;;10307486;28;20218;-81
2023/01/16 10:12:42;;;;;;;13.70;6.97;;;4.40;99.90;;;;;;10308182;28;20390;-79
2023/01/16 10:18:38;;;;;;;11.67;4.73;;;4.50;99.90;;;;;;10308460;28;20286;-79
2023/01/16 10:24:08;;;;;;;14.67;8.50;;;4.50;5.00;;;;;;10294195;28;20227;-81
2023/01/16 10:29:50;;;;;;;13.13;6.90;;;4.50;1.00;;;;;;10298300;28;20261;-78
2023/01/16 10:35:19;;;;;;;12.20;5.83;;;4.50;1.00;;;;;;10150270;29;20611;-78
2023/01/16 10:40:42;;;;;;;11.37;5.53;;;4.50;1.00;;;;;;10147173;29;20222;-78
2023/01/16 10:52:11;;;;;;;13.03;6.10;;;4.40;1.00;;;;;;10169386;29;20209;-81
2023/01/16 10:57:32;;;;;;;16.50;7.97;;;4.40;1.00;;;;;;10153694;29;20266;-81
2023/01/16 11:03:00;;;;;;;11.60;5.97;;;4.30;21.90;;;;;;10143534;29;20214;-79
2023/01/16 11:08:22;;;;;;;13.33;6.70;;;4.40;1.00;;;;;;10189234;28;20295;-79
2023/01/16 11:19:28;;;;;;;15.57;7.90;;;4.40;63.80;;;;;;10302620;28;20653;-81
2023/01/16 11:24:57;;;;;;;8.13;4.83;;;4.60;1.00;;;;;;10312752;28;20232;-80
2023/01/16 11:30:26;;;;;;;12.33;5.80;;;5.00;99.90;;;;;;10301237;28;20606;-79
2023/01/16 11:35:57;;;;;;;22.27;8.97;;;5.10;1.00;;;;;;10310707;28;20288;-78
2023/01/16 11:41:35;;;;;;;19.70;7.60;;;4.90;1.00;;;;;;10315332;28;20217;-76
2023/01/16 11:46:58;;;;;;;21.97;9.27;;;5.20;99.90;;;;;;10296291;28;20249;-78
2023/01/16 11:52:28;;;;;;;23.80;9.57;;;5.50;99.90;;;;;;10316525;28;20308;-79
2023/01/16 11:57:57;;;;;;;14.63;7.23;;;5.00;1.00;;;;;;10271907;28;20231;-79
2023/01/16 12:03:30;;;;;;;13.30;7.10;;;5.00;99.90;;;;;;10297979;28;20203;-76
2023/01/16 12:09:09;;;;;;;10.93;5.90;;;4.80;1.00;;;;;;10300572;28;20493;-81
2023/01/16 12:14:42;;;;;;;16.60;7.60;;;4.60;99.90;;;;;;10299405;28;20507;-81
2023/01/16 12:20:31;;;;;;;12.10;6.10;;;4.70;1.00;;;;;;10310478;28;20559;-82
2023/01/16 12:26:07;;;;;;;13.60;7.87;;;4.60;1.00;;;;;;10309288;28;20593;-78
2023/01/16 12:31:50;;;;;;;14.63;6.57;;;4.60;1.00;;;;;;10283387;28;20233;-78
2023/01/16 12:37:31;;;;;;;9.60;5.37;;;4.60;1.00;;;;;;10299372;28;20291;-77
2023/01/16 12:43:23;;;;;;;13.47;7.33;;;4.60;14.20;;;;;;10313064;28;20201;-77
2023/01/16 12:49:02;;;;;;;10.47;6.40;;;4.80;1.00;;;;;;10289603;28;20247;-78
2023/01/16 12:54:50;;;;;;;15.43;6.63;;;4.70;1.00;;;;;;10288618;28;20208;-82
2023/01/16 13:00:21;;;;;;;13.07;5.97;;;4.70;1.00;;;;;;10311305;28;20239;-85
2023/01/16 13:05:44;;;;;;;9.53;4.57;;;4.70;1.00;;;;;;10282920;28;20235;-81
2023/01/16 13:17:27;;;;;;;10.50;5.50;;;4.50;1.00;;;;;;10293481;28;20510;-85
2023/01/16 13:23:11;;;;;;;25.57;11.47;;;4.50;60.80;;;;;;10293224;28;20529;-81
2023/01/16 13:28:56;;;;;;;28.83;11.80;;;4.30;99.90;;;;;;10259506;28;20584;-78
2023/01/16 13:34:26;;;;;;;17.37;9.30;;;4.30;99.90;;;;;;10260096;28;20289;-79
2023/01/16 13:40:05;;;;;;;16.33;9.57;;;4.20;99.90;;;;;;10293902;28;20208;-77
2023/01/16 13:45:48;;;;;;;15.37;7.87;;;4.10;99.90;;;;;;10296625;28;20242;-77
2023/01/16 13:51:15;;;;;;;14.17;6.40;;;4.10;1.00;;;;;;10298142;28;20235;-76
2023/01/16 13:56:40;;;;;;;19.47;8.70;;;4.00;1.00;;;;;;10310247;28;20314;-77
2023/01/16 14:02:01;;;;;;;25.33;9.57;;;3.90;1.00;;;;;;10309579;28;20273;-80
2023/01/16 14:13:37;;;;;;;16.43;8.23;;;3.80;1.00;;;;;;10281427;28;20487;-78
2023/01/16 14:19:15;;;;;;;18.47;9.00;;;3.80;1.00;;;;;;10299027;28;20204;-77
2023/01/16 14:24:40;;;;;;;19.87;9.20;;;3.80;1.00;;;;;;10309091;28;20522;-78
2023/01/16 14:30:05;;;;;;;29.60;15.43;;;3.70;1.00;;;;;;10281036;28;20262;-77
2023/01/16 14:35:41;;;;;;;20.27;10.50;;;3.70;1.00;;;;;;10309057;28;20190;-79
2023/01/16 14:58:28;;;;;;;36.67;15.43;;;3.40;1.00;;;;;;10308578;28;20256;-80
2023/01/16 15:03:50;;;;;;;20.83;9.50;;;3.30;1.00;;;;;;10295857;28;20231;-78
2023/01/16 15:09:18;;;;;;;27.63;9.10;;;3.30;1.00;;;;;;10305809;28;20263;-76
2023/01/16 15:14:50;;;;;;;18.77;8.60;;;3.20;1.00;;;;;;10291363;28;20365;-80
2023/01/16 15:26:05;;;;;;;23.20;10.67;;;2.90;1.00;;;;;;10298615;28;20246;-78
2023/01/16 15:31:28;;;;;;;17.23;9.83;;;2.90;1.00;;;;;;10276333;28;20230;-81
2023/01/16 15:36:51;;;;;;;22.30;11.70;;;2.80;3.10;;;;;;10293073;28;20518;-82
2023/01/16 15:48:10;;;;;;;36.23;16.83;;;2.70;52.40;;;;;;10306157;28;20234;-81
2023/01/16 15:53:40;;;;;;;30.83;14.60;;;2.60;44.40;;;;;;10288713;28;20519;-83
2023/01/16 15:59:01;;;;;;;27.13;13.27;;;2.60;55.40;;;;;;10293605;28;20206;-79
2023/01/16 16:04:23;;;;;;;29.70;12.77;;;2.50;61.90;;;;;;10303883;28;20206;-81
2023/01/16 16:09:49;;;;;;;28.13;12.60;;;2.50;44.40;;;;;;10321537;28;20393;-77
2023/01/16 16:21:12;;;;;;;25.73;12.23;;;2.30;47.20;;;;;;10312987;28;20194;-79
2023/01/16 16:26:40;;;;;;;25.67;13.13;;;2.30;49.10;;;;;;10320527;28;20259;-79
2023/01/16 16:32:10;;;;;;;25.13;13.20;;;2.20;67.50;;;;;;10315798;28;20399;-78
2023/01/16 16:37:31;;;;;;;25.83;13.23;;;2.10;90.40;;;;;;10286364;28;20275;-78
2023/01/16 16:42:53;;;;;;;25.47;12.27;;;2.00;95.90;;;;;;10286933;28;20209;-79
2023/01/16 16:48:30;;;;;;;35.17;17.53;;;2.00;97.80;;;;;;10304507;28;20251;-78
2023/01/16 16:53:54;;;;;;;48.43;19.17;;;2.00;99.50;;;;;;10288255;28;20260;-78
2023/01/16 16:59:25;;;;;;;34.47;15.97;;;1.90;99.90;;;;;;10303372;28;20204;-78
2023/01/16 17:04:46;;;;;;;31.70;17.07;;;1.90;99.90;;;;;;10300109;28;20244;-78
2023/01/16 17:10:15;;;;;;;34.70;16.87;;;1.90;99.90;;;;;;10290707;28;20190;-77
2023/01/16 17:15:36;;;;;;;27.80;16.77;;;1.90;99.90;;;;;;10315951;28;20262;-78
2023/01/16 17:20:57;;;;;;;33.63;16.13;;;1.80;99.90;;;;;;10317872;28;20285;-77
2023/01/16 17:26:18;;;;;;;29.30;16.63;;;1.80;99.90;;;;;;10316659;28;20233;-79
2023/01/16 17:31:41;;;;;;;31.47;17.63;;;1.80;99.90;;;;;;10300532;28;20272;-77
2023/01/16 17:37:06;;;;;;;35.80;16.57;;;1.80;99.90;;;;;;10316664;28;20280;-77
2023/01/16 17:48:08;;;;;;;24.73;14.17;;;1.80;99.90;;;;;;10315629;28;20494;-79
2023/01/16 17:53:30;;;;;;;32.57;16.60;;;1.70;99.90;;;;;;10317472;28;20477;-77
2023/01/16 17:59:03;;;;;;;28.43;16.13;;;1.70;99.90;;;;;;10315986;28;20244;-79
2023/01/16 18:04:29;;;;;;;43.07;20.77;;;1.70;99.90;;;;;;10316929;28;20209;-76
2023/01/16 18:09:50;;;;;;;36.60;16.13;;;1.60;99.90;;;;;;10315209;28;20522;-79
2023/01/16 18:21:59;;;;;;;33.30;16.97;;;1.60;99.90;;;;;;10315595;28;20218;-76
2023/01/16 18:26:32;;;;;;;34.10;16.27;;;1.60;99.90;;;;;;10314066;28;20230;-77
2023/01/16 18:37:36;;;;;;;31.47;15.77;;;1.60;99.90;;;;;;10315764;28;20249;-77
2023/01/16 19:05:57;;;;;;;36.97;19.97;;;1.40;99.90;;;;;;10231816;29;20541;-78
2023/01/16 19:11:19;;;;;;;31.27;19.27;;;1.40;99.90;;;;;;10217397;29;20247;-78
2023/01/16 19:16:48;;;;;;;32.30;19.57;;;1.40;99.90;;;;;;10218836;29;20217;-79
2023/01/16 19:22:09;;;;;;;39.17;21.83;;;1.40;99.90;;;;;;10190329;29;20562;-78
2023/01/16 19:27:31;;;;;;;37.43;20.97;;;1.40;99.90;;;;;;10243647;28;20244;-78
2023/01/16 19:32:53;;;;;;;43.63;23.73;;;1.30;99.90;;;;;;10296423;28;20366;-78
2023/01/16 19:38:14;;;;;;;43.30;23.93;;;1.40;99.90;;;;;;10320687;28;20198;-78
2023/01/16 19:49:15;;;;;;;50.20;26.27;;;1.30;99.90;;;;;;10322136;28;20229;-78
2023/01/16 19:54:36;;;;;;;40.60;24.57;;;1.20;99.90;;;;;;10303367;28;20437;-78
2023/01/16 19:59:57;;;;;;;42.27;23.83;;;1.30;99.90;;;;;;10321598;28;20199;-78
2023/01/16 20:05:18;;;;;;;47.73;25.50;;;1.30;99.90;;;;;;10319127;28;20222;-78
2023/01/16 20:10:39;;;;;;;38.20;21.80;;;1.40;99.90;;;;;;10321343;28;20225;-77
2023/01/16 20:16:02;;;;;;;38.53;23.13;;;1.40;99.90;;;;;;10321459;28;20217;-77
2023/01/16 20:21:23;;;;;;;37.90;22.93;;;1.50;99.90;;;;;;10319905;28;20249;-77
2023/01/16 20:26:47;;;;;;;39.53;23.77;;;1.50;99.90;;;;;;10319213;28;20233;-77
2023/01/16 20:32:08;;;;;;;39.33;23.27;;;1.60;99.90;;;;;;10303073;28;20237;-76
2023/01/16 20:37:30;;;;;;;41.17;24.13;;;1.70;99.90;;;;;;10304108;28;20201;-77
2023/01/16 20:48:31;;;;;;;40.17;23.67;;;1.80;99.90;;;;;;10299756;28;20261;-78
2023/01/16 20:53:52;;;;;;;47.97;24.83;;;1.80;99.90;;;;;;10318336;28;20193;-76
2023/01/16 20:59:13;;;;;;;48.80;24.60;;;1.80;99.90;;;;;;10262527;28;20538;-78
2023/01/16 21:04:35;;;;;;;36.07;21.40;;;1.80;99.90;;;;;;10293959;28;20220;-78
2023/01/16 21:09:55;;;;;;;38.13;22.20;;;1.90;99.90;;;;;;10316481;28;20218;-78
2023/01/16 21:15:16;;;;;;;34.43;21.57;;;1.80;99.90;;;;;;10331881;28;20216;-77
2023/01/16 21:26:17;;;;;;;34.03;20.57;;;1.90;99.90;;;;;;10318462;28;20280;-78
2023/01/16 21:31:39;;;;;;;28.57;18.70;;;1.90;99.90;;;;;;10316091;28;20322;-78
2023/01/16 21:37:00;;;;;;;33.17;19.73;;;1.90;99.90;;;;;;10287649;28;20396;-78
2023/01/16 21:48:07;;;;;;;35.63;21.47;;;1.80;97.10;;;;;;10263148;28;20269;-78
2023/01/16 21:53:28;;;;;;;37.43;22.50;;;1.90;99.90;;;;;;10283037;28;20278;-78
2023/01/16 21:58:50;;;;;;;38.60;22.13;;;1.80;93.70;;;;;;10302664;28;20237;-79
2023/01/16 22:04:11;;;;;;;39.03;21.90;;;1.90;93.60;;;;;;10314815;28;20222;-78
2023/01/16 22:09:33;;;;;;;34.27;22.10;;;1.80;93.70;;;;;;10302422;28;20231;-77
2023/01/16 22:26:10;;;;;;;31.87;21.10;;;1.90;57.30;;;;;;10315771;28;20234;-78
2023/01/16 22:31:31;;;;;;;34.10;22.70;;;1.90;42.40;;;;;;10315470;28;20268;-79
2023/01/16 22:36:52;;;;;;;38.80;24.90;;;1.80;49.90;;;;;;10315525;28;20206;-78
2023/01/16 22:42:16;;;;;;;38.53;24.27;;;1.80;71.70;;;;;;10315229;28;20448;-78
2023/01/16 22:47:37;;;;;;;35.77;23.87;;;1.90;49.00;;;;;;10261206;28;20233;-76
2023/01/16 22:52:58;;;;;;;36.47;24.03;;;1.90;78.40;;;;;;10268345;28;20243;-76
2023/01/16 22:58:22;;;;;;;32.10;20.93;;;1.90;62.80;;;;;;10314308;28;20284;-75
2023/01/16 23:03:44;;;;;;;36.57;21.43;;;1.80;80.50;;;;;;10282697;28;20252;-76
2023/01/16 23:09:05;;;;;;;33.03;20.60;;;1.90;63.80;;;;;;10314603;28;20236;-76
2023/01/16 23:14:28;;;;;;;33.47;19.97;;;1.90;75.00;;;;;;10296372;28;20209;-76
2023/01/16 23:19:49;;;;;;;30.93;20.53;;;1.90;74.70;;;;;;10283931;28;20488;-76
2023/01/16 23:25:10;;;;;;;31.50;19.53;;;2.00;77.80;;;;;;10293651;28;20210;-77
2023/01/16 23:30:31;;;;;;;30.13;18.93;;;2.00;85.70;;;;;;10289002;28;20233;-76
2023/01/16 23:35:52;;;;;;;29.97;19.43;;;2.00;99.90;;;;;;10312565;28;20211;-76
2023/01/16 23:41:15;;;;;;;33.47;20.80;;;2.00;99.90;;;;;;10314676;28;20196;-77
2023/01/16 23:46:39;;;;;;;31.13;21.47;;;2.20;99.90;;;;;;10298887;28;20244;-77
2023/01/16 23:52:05;;;;;;;36.80;20.37;;;2.20;99.90;;;;;;10297167;28;20200;-75
2023/01/16 23:57:30;;;;;;;34.33;20.97;;;2.20;99.90;;;;;;10311343;28;20555;-77
